Photo de Laille
https://tgftp.nws.noaa.gov/data/observations/metar/stations/LFRN.TXT2019/02/19 03:30 LFRN 190330Z AUTO 13001KT 0300 0250 R28L/0325U R10R/0225D FG VV/// 03/03 Q1021 TEMPO 0400 FG
Rennes

Metar : 2019/02/19 03:30 LFRN 190330Z AUTO 13001KT 0300 0250 R28L/0325U R10R/0225D FG VV/// 03/03 Q1021 TEMPO 0400 FG
Couverture nuageuse :
Pression de
Humidité :
Température :
Vent de SE at 1 mph (2 km/h)
Visibilité : 0 mile (0 km)
Nantes

Metar : 2019/02/19 03:30 LFRS 190330Z AUTO VRB01KT 0400 0350 R03/0500D R21/0600U FG VV/// 05/04 Q1021 NOSIG
Couverture nuageuse :
Traduc : Partly cloudy 700 ft
Pression de
Humidité :
Température :
Point de rosée :
Vent de varies at 1 mph (2 km/h)
Visibilité : 0 mile (0 km)
Lannion
partiellement nuageux
Metar : 2019/02/19 03:30 LFRO 190330Z AUTO 16005KT 8000 NSC 02/02 Q1020
Couverture nuageuse :
Traduc : Partly cloudy 700 ft
Pression de 30.12 inHg (1020 hPa)
Humidité : 100%
Température : 36°F (2°C)
Point de rosée : 36°F (2°C)
Vent de SSE at 6 mph (9 km/h)
Visibilité : 5 miles (8 km)
Dinard

Metar : 2019/02/19 03:30 LFRD 190330Z AUTO 21004KT 5000 1600 BR NSC 06/05 Q1020 NOSIG
Couverture nuageuse :
Traduc : Partly cloudy 700 ft
Pression de
Humidité :
Température :
Point de rosée :
Vent de SSW at 5 mph (7 km/h)
Visibilité : 3 miles (5 km)
Brest

Metar : 2019/02/19 03:30 LFRB 190330Z AUTO 19004KT 1100 0900 R25/1400N R07/1000D BCFG FEW003 02/02 Q1020 TEMPO 3000 MIFG
Couverture nuageuse :
Traduc : Partly cloudy 700 ft
Pression de
Humidité :
Température :
Point de rosée :
Vent de S at 5 mph (7 km/h)
Visibilité : 1 mile (1 km)
Quimper

Metar : 2019/02/19 03:30 LFRQ 190330Z AUTO 00000KT 0300 0250 R28/0650U FG VV/// 01/00 Q1021
Couverture nuageuse :
Traduc : Partly cloudy 700 ft
Pression de
Humidité :
Température :
Point de rosée :
Vent de calm
Visibilité : 0 mile (0 km)
St Nazaire

Metar : 2019/02/19 03:30 LFRZ 190330Z AUTO 09003KT 0350 0300 R25/0450N FG VV/// 07/06 Q1021 NOSIG
Couverture nuageuse :
Traduc : Partly cloudy 700 ft
Pression de
Humidité :
Température :
Point de rosée :
Vent de E at 3 mph (6 km/h)
Visibilité : 0 mile (0 km)
St Brieuc
quelques nuages
Metar : 2019/02/18 22:00 LFRT 182200Z AUTO 25003KT 9999 FEW040 06/05 Q1020
Couverture nuageuse : Few Clouds 4000 ft
Traduc : Partly cloudy 700 ft
Pression de 30.12 inHg (1020 hPa)
Humidité : 93%
Température : 43°F (6°C)
Point de rosée : 41°F (5°C)
Vent de WSW at 3 mph (6 km/h)
Visibilité : 6 miles (10 km)
Lorient

Metar : 2019/02/19 03:30 LFRH 190330Z AUTO 03001KT 0650 0450 R25/1000N R07/0375D FG BKN009 03/02 Q1021 BECMG 0400 FG VV///
Couverture nuageuse :
Traduc : Partly cloudy 700 ft
Pression de
Humidité :
Température :
Point de rosée :
Vent de NNE at 1 mph (2 km/h)
Visibilité : 0 mile (1 km)
Vannes-Meucon
Brouillard
Metar : 2019/02/19 03:30 LFRV 190330Z AUTO 35004KT 0800 FG VV/// 03/03 Q1020
Couverture nuageuse :
Traduc : Partly cloudy 700 ft
Pression de 30.12 inHg (1020 hPa)
Humidité : 100%
Température : 37°F (3°C)
Point de rosée : 37°F (3°C)
Vent de N at 5 mph (7 km/h)
Visibilité : 0 mile (1 km)

 


   Weather Underground PWS IBRETAGN39      Weather Underground PWS IBRETAGN39Retour Météo-Laillé adhérent de Météo-Bretagne et d'Infoclimat. Données mises à jour en temps réel via Météolink Climatologie réalisée sous Wswin et GraphWeather.

Affichage prévisions météo de WeatherUnderground via script PHP de Saratoga.

Copyright 2012-2018